createdAt,value
2022-12-20T00:01:33.797Z,9.80
2022-12-20T00:04:03.696Z,13.57
2022-12-20T00:06:31.324Z,9.40
2022-12-20T00:09:01.257Z,12.48
2022-12-20T00:11:29.104Z,13.27
2022-12-20T00:13:57.276Z,14.23
2022-12-20T00:16:27.191Z,12.55
2022-12-20T00:18:57.171Z,9.73
2022-12-20T00:21:25.248Z,11.43
2022-12-20T00:23:53.507Z,11.65
2022-12-20T00:26:23.199Z,13.15
2022-12-20T00:28:51.298Z,11.60
2022-12-20T00:31:20.499Z,12.85
2022-12-20T00:33:50.317Z,8.52
2022-12-20T00:36:19.327Z,10.85
2022-12-20T00:38:51.427Z,6.32
2022-12-20T00:41:28.088Z,9.32
2022-12-20T00:43:55.712Z,5.18
2022-12-20T00:46:24.819Z,8.10
2022-12-20T00:48:54.124Z,9.60
2022-12-20T00:51:25.080Z,4.88
2022-12-20T00:53:53.155Z,6.97
2022-12-20T00:56:21.058Z,5.40
2022-12-20T00:58:49.002Z,2.75
2022-12-20T01:01:24.239Z,5.03
2022-12-20T01:03:52.939Z,5.40
2022-12-20T01:06:21.531Z,5.60
2022-12-20T01:08:48.839Z,7.82
2022-12-20T01:11:29.114Z,10.30
2022-12-20T01:13:59.514Z,8.90
2022-12-20T01:16:31.679Z,7.05
2022-12-20T01:18:58.916Z,5.43
2022-12-20T01:21:28.409Z,4.63
2022-12-20T01:23:56.430Z,5.22
2022-12-20T01:26:27.082Z,7.35
2022-12-20T01:28:57.991Z,7.90
2022-12-20T01:31:26.098Z,5.50
2022-12-20T01:33:53.550Z,5.97
2022-12-20T01:36:25.373Z,11.43
2022-12-20T01:38:57.665Z,5.53
2022-12-20T01:41:25.620Z,4.18
2022-12-20T01:43:56.076Z,4.88
2022-12-20T01:46:26.379Z,10.52
2022-12-20T01:49:06.383Z,6.18
2022-12-20T01:51:37.063Z,9.32
2022-12-20T01:54:32.905Z,6.55
2022-12-20T01:57:03.844Z,14.40
2022-12-20T01:59:34.597Z,8.00
2022-12-20T02:02:05.725Z,6.05
2022-12-20T02:04:33.404Z,13.27
2022-12-20T02:07:03.140Z,7.18
2022-12-20T02:09:32.940Z,6.90
2022-12-20T02:12:00.136Z,4.82
2022-12-20T02:14:54.733Z,10.25
2022-12-20T02:17:27.762Z,2.78
2022-12-20T02:20:32.840Z,7.28
2022-12-20T02:23:32.637Z,9.43
2022-12-20T02:26:21.547Z,4.32
2022-12-20T02:29:06.810Z,7.57
2022-12-20T02:31:44.605Z,12.95
2022-12-20T02:34:14.186Z,6.35
2022-12-20T02:36:41.515Z,6.35
2022-12-20T02:39:13.106Z,7.82
2022-12-20T02:41:47.735Z,9.13
2022-12-20T02:47:05.542Z,9.68
2022-12-20T02:49:38.646Z,4.90
2022-12-20T02:52:06.509Z,7.03
2022-12-20T02:54:34.540Z,4.80
2022-12-20T02:57:22.605Z,2.17
2022-12-20T03:00:07.910Z,3.38
2022-12-20T03:02:55.235Z,5.28
2022-12-20T03:05:27.150Z,8.07
2022-12-20T03:07:55.434Z,8.90
2022-12-20T03:10:25.565Z,6.57
2022-12-20T03:12:52.964Z,10.48
2022-12-20T03:15:20.659Z,13.55
2022-12-20T03:17:51.820Z,13.25
2022-12-20T03:20:19.137Z,10.38
2022-12-20T03:22:46.480Z,9.23
2022-12-20T03:25:14.436Z,14.35
2022-12-20T03:27:41.858Z,7.68
2022-12-20T03:30:09.967Z,6.13
2022-12-20T03:32:38.601Z,10.95
2022-12-20T03:35:06.737Z,5.28
2022-12-20T03:37:37.672Z,9.52
2022-12-20T03:40:07.093Z,4.13
2022-12-20T03:42:34.405Z,10.20
2022-12-20T03:45:01.620Z,14.40
2022-12-20T03:47:30.953Z,16.75
2022-12-20T03:49:58.290Z,15.25
2022-12-20T03:52:25.834Z,4.90
2022-12-20T03:54:53.135Z,6.22
2022-12-20T03:57:22.039Z,11.73
2022-12-20T03:59:51.546Z,13.10
2022-12-20T04:02:21.630Z,15.35
2022-12-20T04:04:49.906Z,8.75
2022-12-20T04:07:17.338Z,13.43
2022-12-20T04:09:46.942Z,10.55
2022-12-20T04:12:15.829Z,9.05
2022-12-20T04:14:43.722Z,10.10
2022-12-20T04:17:12.413Z,8.57
2022-12-20T04:19:40.462Z,15.88
2022-12-20T04:22:08.778Z,8.95
2022-12-20T04:24:47.865Z,11.25
2022-12-20T04:27:22.971Z,10.30
2022-12-20T04:29:52.119Z,5.75
2022-12-20T04:32:20.735Z,10.05
2022-12-20T04:34:47.900Z,9.23
2022-12-20T04:37:15.101Z,12.18
2022-12-20T04:39:48.467Z,5.32
2022-12-20T04:42:20.183Z,13.35
2022-12-20T04:44:47.862Z,8.50
2022-12-20T04:47:19.202Z,12.65
2022-12-20T04:49:46.378Z,8.85
2022-12-20T04:52:31.992Z,6.72
2022-12-20T04:54:59.235Z,18.50
2022-12-20T04:57:30.629Z,8.77
2022-12-20T04:59:58.744Z,14.63
2022-12-20T05:02:26.029Z,10.50
2022-12-20T05:04:58.437Z,11.25
2022-12-20T05:07:25.647Z,11.43
2022-12-20T05:09:54.971Z,13.35
2022-12-20T05:12:22.114Z,14.38
2022-12-20T05:14:49.351Z,10.00
2022-12-20T05:17:20.307Z,18.17
2022-12-20T05:19:47.517Z,21.80
2022-12-20T05:22:34.795Z,11.82
2022-12-20T05:25:31.457Z,11.63
2022-12-20T05:28:03.330Z,8.30
2022-12-20T05:30:35.052Z,10.85
2022-12-20T05:33:02.583Z,4.53
2022-12-20T05:35:30.939Z,5.63
2022-12-20T05:38:04.754Z,14.57
2022-12-20T05:40:32.601Z,9.20
2022-12-20T05:43:00.849Z,12.43
2022-12-20T05:45:51.414Z,11.93
2022-12-20T05:48:24.096Z,12.90
2022-12-20T05:50:52.605Z,11.13
2022-12-20T05:53:30.444Z,10.07
2022-12-20T05:56:01.672Z,13.73
2022-12-20T05:58:33.407Z,12.35
2022-12-20T06:01:04.446Z,12.13
2022-12-20T06:03:36.505Z,5.55
2022-12-20T06:06:14.122Z,11.43
2022-12-20T06:08:43.954Z,20.90
2022-12-20T06:11:16.686Z,13.30
2022-12-20T06:13:51.606Z,16.30
2022-12-20T06:16:20.850Z,11.93
2022-12-20T06:18:48.226Z,9.93
2022-12-20T06:21:17.052Z,14.07
2022-12-20T06:23:44.992Z,17.15
2022-12-20T06:26:14.274Z,15.75
2022-12-20T06:28:52.523Z,19.60
2022-12-20T06:31:34.777Z,11.48
2022-12-20T06:34:02.134Z,16.67
2022-12-20T06:36:33.967Z,11.40
2022-12-20T06:39:07.620Z,9.68
2022-12-20T06:41:40.905Z,9.90
2022-12-20T06:44:08.705Z,9.90
2022-12-20T06:46:36.234Z,7.00
2022-12-20T06:49:04.285Z,11.45
2022-12-20T06:51:32.680Z,9.20
2022-12-20T06:54:01.097Z,10.60
2022-12-20T06:56:33.614Z,12.50
2022-12-20T06:59:09.113Z,13.73
2022-12-20T07:01:36.376Z,13.23
2022-12-20T07:04:03.891Z,7.78
2022-12-20T07:06:31.194Z,3.15
2022-12-20T07:08:58.489Z,6.53
2022-12-20T07:11:26.235Z,2.60
2022-12-20T07:13:57.503Z,1.45
2022-12-20T07:16:25.301Z,0.45
2022-12-20T07:18:54.036Z,1.05
2022-12-20T07:21:21.885Z,0.40
2022-12-20T07:23:49.442Z,0.20
2022-12-20T07:26:16.802Z,0.00
2022-12-20T07:28:44.293Z,0.10
2022-12-20T07:31:11.533Z,0.00
2022-12-20T07:33:39.068Z,1.15
2022-12-20T07:36:11.595Z,0.30
2022-12-20T07:38:39.422Z,0.00
2022-12-20T07:41:12.121Z,0.65
2022-12-20T07:43:39.603Z,0.10
2022-12-20T07:46:08.101Z,1.33
2022-12-20T07:48:36.253Z,1.38
2022-12-20T07:51:12.346Z,0.25
2022-12-20T07:53:45.641Z,0.13
2022-12-20T07:56:13.973Z,0.43
2022-12-20T07:58:43.471Z,0.00
2022-12-20T08:01:12.671Z,2.17
2022-12-20T08:03:53.067Z,0.35
2022-12-20T08:06:21.047Z,0.40
2022-12-20T08:08:53.449Z,0.10
2022-12-20T08:11:22.582Z,0.77
2022-12-20T08:13:57.494Z,0.47
2022-12-20T08:16:26.390Z,0.28
2022-12-20T08:18:53.555Z,0.10
2022-12-20T08:21:20.748Z,0.63
2022-12-20T08:23:48.067Z,0.20
2022-12-20T08:26:15.265Z,2.17
2022-12-20T08:28:43.572Z,0.20
2022-12-20T08:31:12.855Z,0.20
2022-12-20T08:33:40.858Z,1.17
2022-12-20T08:36:10.877Z,0.65
2022-12-20T08:38:38.734Z,0.30
2022-12-20T08:41:11.108Z,0.68
2022-12-20T08:43:39.276Z,0.43
2022-12-20T08:46:07.671Z,0.43
2022-12-20T08:48:35.290Z,4.68
2022-12-20T08:51:05.035Z,1.38
2022-12-20T08:53:34.712Z,1.00
2022-12-20T08:56:07.250Z,0.10
2022-12-20T08:58:35.600Z,2.38
2022-12-20T09:01:06.833Z,2.00
2022-12-20T09:03:35.459Z,1.50
2022-12-20T09:06:06.923Z,1.85
2022-12-20T09:08:35.258Z,0.50
2022-12-20T09:11:15.103Z,1.23
2022-12-20T09:13:44.993Z,1.67
2022-12-20T09:16:15.597Z,2.13
2022-12-20T09:18:42.960Z,1.65
2022-12-20T09:21:11.329Z,4.93
2022-12-20T09:23:39.125Z,2.60
2022-12-20T09:26:11.155Z,2.75
2022-12-20T09:28:38.590Z,1.67
2022-12-20T09:31:08.353Z,3.45
2022-12-20T09:33:36.730Z,4.78
2022-12-20T09:36:05.355Z,7.38
2022-12-20T09:38:32.981Z,1.63
2022-12-20T09:41:04.813Z,3.58
2022-12-20T09:43:33.737Z,3.03
2022-12-20T09:46:03.183Z,5.85
2022-12-20T09:48:37.171Z,6.93
2022-12-20T09:51:10.137Z,3.15
2022-12-20T09:53:44.898Z,1.58
2022-12-20T09:56:25.394Z,2.85
2022-12-20T09:59:03.100Z,0.45
2022-12-20T10:01:38.686Z,1.85
2022-12-20T10:04:15.094Z,5.45
2022-12-20T10:07:02.321Z,0.52
2022-12-20T10:09:56.072Z,3.90
2022-12-20T10:12:35.559Z,2.30
2022-12-20T10:15:02.817Z,2.10
2022-12-20T10:18:13.897Z,2.60
2022-12-20T10:20:47.201Z,5.28
2022-12-20T10:23:51.531Z,1.10
2022-12-20T10:26:18.748Z,0.82
2022-12-20T10:28:50.751Z,2.25
2022-12-20T10:33:50.070Z,8.05
2022-12-20T10:36:31.550Z,4.40
2022-12-20T10:39:10.351Z,6.32
2022-12-20T10:41:40.497Z,2.72
2022-12-20T10:44:27.190Z,5.35
2022-12-20T10:47:00.326Z,9.27
2022-12-20T10:49:34.660Z,12.00
2022-12-20T10:52:09.361Z,3.90
2022-12-20T10:54:47.118Z,3.67
2022-12-20T10:57:25.665Z,2.45
2022-12-20T11:00:06.114Z,7.78
2022-12-20T11:02:41.330Z,7.30
2022-12-20T11:05:12.420Z,4.03
2022-12-20T11:10:45.958Z,7.72
2022-12-20T11:13:26.305Z,7.82
2022-12-20T11:15:57.642Z,7.63
2022-12-20T11:18:43.709Z,5.97
2022-12-20T11:21:28.800Z,4.30
2022-12-20T11:24:10.551Z,6.72
2022-12-20T11:27:02.312Z,5.90
2022-12-20T11:29:56.235Z,5.88
2022-12-20T11:32:49.664Z,13.45
2022-12-20T11:35:23.180Z,12.90
2022-12-20T11:38:04.072Z,7.68
2022-12-20T11:40:39.829Z,9.63
2022-12-20T11:43:25.819Z,11.55
2022-12-20T11:46:11.718Z,8.73
2022-12-20T11:48:49.657Z,7.45
2022-12-20T11:51:47.345Z,12.40
2022-12-20T11:54:34.517Z,10.38
2022-12-20T11:57:21.642Z,10.20
2022-12-20T11:59:58.869Z,7.53
2022-12-20T12:02:53.124Z,6.30
2022-12-20T12:05:45.323Z,9.07
2022-12-20T12:08:19.448Z,17.02
2022-12-20T12:10:59.413Z,15.80
2022-12-20T12:13:30.612Z,10.07
2022-12-20T12:16:03.725Z,14.98
2022-12-20T12:18:33.924Z,14.95
2022-12-20T12:21:15.148Z,14.52
2022-12-20T12:23:45.046Z,14.48
2022-12-20T12:26:22.613Z,10.45
2022-12-20T12:28:55.008Z,13.88
2022-12-20T12:31:32.950Z,12.68
2022-12-20T12:34:06.343Z,19.02
2022-12-20T12:36:53.073Z,15.93
2022-12-20T12:39:51.252Z,10.90
2022-12-20T12:42:27.770Z,13.27
2022-12-20T12:45:03.244Z,11.18
2022-12-20T12:47:49.859Z,16.40
2022-12-20T12:50:33.918Z,17.35
2022-12-20T12:53:08.954Z,14.93
2022-12-20T12:55:43.645Z,22.65
2022-12-20T12:58:14.967Z,13.05
2022-12-20T13:01:00.111Z,9.07
2022-12-20T13:03:54.781Z,13.65
2022-12-20T13:06:30.815Z,13.27
2022-12-20T13:09:03.752Z,10.68
2022-12-20T13:11:37.754Z,17.17
2022-12-20T13:14:21.407Z,18.15
2022-12-20T13:17:11.356Z,18.27
2022-12-20T13:19:38.928Z,21.00
2022-12-20T13:22:12.385Z,16.60
2022-12-20T13:24:47.225Z,14.85
2022-12-20T13:27:32.000Z,11.45
2022-12-20T13:30:22.396Z,18.42
2022-12-20T13:32:56.866Z,27.25
2022-12-20T13:35:29.831Z,21.15
2022-12-20T13:37:56.994Z,12.60
2022-12-20T13:40:43.134Z,19.80
2022-12-20T13:43:28.099Z,14.07
2022-12-20T13:48:39.613Z,15.70
2022-12-20T13:51:10.690Z,9.82
2022-12-20T13:53:39.551Z,11.48
2022-12-20T13:56:32.353Z,19.52
2022-12-20T13:59:06.508Z,21.48
2022-12-20T14:01:34.954Z,20.30
2022-12-20T14:04:07.358Z,15.40
2022-12-20T14:06:35.501Z,17.85
2022-12-20T14:09:03.432Z,19.35
2022-12-20T14:11:30.746Z,18.77
2022-12-20T14:14:00.143Z,11.85
2022-12-20T14:16:29.879Z,11.88
2022-12-20T14:18:57.073Z,20.30
2022-12-20T14:21:25.962Z,13.98
2022-12-20T14:23:56.798Z,12.35
2022-12-20T14:26:36.573Z,19.65
2022-12-20T14:29:10.472Z,13.27
2022-12-20T14:31:46.925Z,13.73
2022-12-20T14:34:30.348Z,14.45
2022-12-20T14:37:24.922Z,21.55
2022-12-20T14:40:12.518Z,25.58
2022-12-20T14:42:40.489Z,12.73
2022-12-20T14:45:10.598Z,25.95
2022-12-20T14:47:46.942Z,21.35
2022-12-20T14:50:26.791Z,20.15
2022-12-20T14:52:55.805Z,18.00
2022-12-20T14:55:38.896Z,13.23
2022-12-20T14:58:26.330Z,21.48
2022-12-20T15:01:04.402Z,15.45
2022-12-20T15:03:31.804Z,16.00
2022-12-20T15:06:00.498Z,22.58
2022-12-20T15:08:27.808Z,24.63
2022-12-20T15:11:01.208Z,17.60
2022-12-20T15:13:30.927Z,15.48
2022-12-20T15:16:03.362Z,15.88
2022-12-20T15:18:30.869Z,13.23
2022-12-20T15:21:06.262Z,11.13
2022-12-20T15:23:34.545Z,19.02
2022-12-20T15:26:01.874Z,14.75
2022-12-20T15:28:29.678Z,10.52
2022-12-20T15:30:57.166Z,9.68
2022-12-20T15:33:27.044Z,10.93
2022-12-20T15:35:54.445Z,7.57
2022-12-20T15:38:47.687Z,15.05
2022-12-20T15:41:23.825Z,11.68
2022-12-20T15:43:55.257Z,10.90
2022-12-20T15:46:22.617Z,8.80
2022-12-20T15:48:50.153Z,13.65
2022-12-20T15:51:36.312Z,11.95
2022-12-20T15:54:07.924Z,6.25
2022-12-20T15:56:35.135Z,14.38
2022-12-20T15:59:12.596Z,11.63
2022-12-20T16:01:50.108Z,11.20
2022-12-20T16:04:20.207Z,14.77
2022-12-20T16:06:50.059Z,10.85
2022-12-20T16:09:18.057Z,6.80
2022-12-20T16:11:45.778Z,11.23
2022-12-20T16:14:18.186Z,10.73
2022-12-20T16:16:47.976Z,7.68
2022-12-20T16:19:15.542Z,8.38
2022-12-20T16:21:52.499Z,13.07
2022-12-20T16:24:21.275Z,13.98
2022-12-20T16:26:51.749Z,7.85
2022-12-20T16:29:18.972Z,9.48
2022-12-20T16:31:46.298Z,10.93
2022-12-20T16:34:18.206Z,7.50
2022-12-20T16:36:46.580Z,5.40
2022-12-20T16:39:13.779Z,8.85
2022-12-20T16:41:43.667Z,8.00
2022-12-20T16:44:16.033Z,9.93
2022-12-20T16:46:43.365Z,12.60
2022-12-20T16:49:19.571Z,10.32
2022-12-20T16:51:48.543Z,8.63
2022-12-20T16:54:23.255Z,9.82
2022-12-20T16:56:55.345Z,8.07
2022-12-20T16:59:24.432Z,19.63
2022-12-20T17:01:57.473Z,6.78
2022-12-20T17:04:26.930Z,8.10
2022-12-20T17:06:54.635Z,7.07
2022-12-20T17:14:41.440Z,9.32
2022-12-20T17:17:08.634Z,7.68
2022-12-20T17:19:35.876Z,10.65
2022-12-20T17:24:48.122Z,10.13
2022-12-20T17:27:15.343Z,4.82
2022-12-20T17:29:42.754Z,6.00
2022-12-20T17:32:20.482Z,6.65
2022-12-20T17:34:48.691Z,16.65
2022-12-20T17:37:17.582Z,8.63
2022-12-20T17:39:45.351Z,7.72
2022-12-20T17:42:14.060Z,7.25
2022-12-20T17:44:41.280Z,12.00
2022-12-20T17:47:08.566Z,7.20
2022-12-20T17:49:35.792Z,7.67
2022-12-20T17:52:03.147Z,10.73
2022-12-20T17:54:38.533Z,9.27
2022-12-20T17:57:17.103Z,10.05
2022-12-20T17:59:44.566Z,7.07
2022-12-20T18:02:23.130Z,5.68
2022-12-20T18:04:51.576Z,8.18
2022-12-20T18:07:18.929Z,4.10
2022-12-20T18:09:49.768Z,7.80
2022-12-20T18:12:17.828Z,6.90
2022-12-20T18:14:45.350Z,9.30
2022-12-20T18:17:12.664Z,9.05
2022-12-20T18:19:40.939Z,6.53
2022-12-20T18:22:08.223Z,11.57
2022-12-20T18:24:35.548Z,16.17
2022-12-20T18:27:02.874Z,5.95
2022-12-20T18:29:31.343Z,8.55
2022-12-20T18:31:58.611Z,9.65
2022-12-20T18:34:25.949Z,7.30
2022-12-20T18:36:54.401Z,9.63
2022-12-20T18:39:21.756Z,14.15
2022-12-20T18:41:49.025Z,12.40
2022-12-20T18:44:16.248Z,11.60
2022-12-20T18:46:43.455Z,9.80
2022-12-20T18:49:10.718Z,9.80
2022-12-20T18:51:37.995Z,6.90
2022-12-20T18:54:07.128Z,11.70
2022-12-20T18:56:36.772Z,9.15
2022-12-20T18:59:11.597Z,7.38
2022-12-20T19:01:41.396Z,9.48
2022-12-20T19:04:09.632Z,8.88
2022-12-20T19:06:38.233Z,13.07
2022-12-20T19:09:11.323Z,10.98
2022-12-20T19:11:39.229Z,14.10
2022-12-20T19:14:07.685Z,11.10
2022-12-20T19:16:35.607Z,11.02
2022-12-20T19:19:03.930Z,13.63
2022-12-20T19:21:33.185Z,20.08
2022-12-20T19:24:05.225Z,14.18
2022-12-20T19:26:33.490Z,15.80
2022-12-20T19:29:00.817Z,11.60
2022-12-20T19:31:30.473Z,13.30
2022-12-20T19:34:01.396Z,19.25
2022-12-20T19:36:31.227Z,14.50
2022-12-20T19:39:00.747Z,15.65
2022-12-20T19:41:30.893Z,18.23
2022-12-20T19:43:58.699Z,27.63
2022-12-20T19:46:29.373Z,21.52
2022-12-20T19:48:58.734Z,31.38
2022-12-20T19:51:27.461Z,21.05
2022-12-20T19:53:56.993Z,20.85
2022-12-20T19:56:27.029Z,24.42
2022-12-20T19:58:55.362Z,21.73
2022-12-20T20:01:25.921Z,16.58
2022-12-20T20:03:58.757Z,18.55
2022-12-20T20:06:27.495Z,16.38
2022-12-20T20:08:57.917Z,20.58
2022-12-20T20:11:26.484Z,16.90
2022-12-20T20:13:54.077Z,15.52
2022-12-20T20:16:23.098Z,16.83
2022-12-20T20:18:50.825Z,12.68
2022-12-20T20:21:22.112Z,18.77
2022-12-20T20:23:53.915Z,19.20
2022-12-20T20:26:27.330Z,27.35
2022-12-20T20:28:54.614Z,17.83
2022-12-20T20:31:22.644Z,12.15
2022-12-20T20:33:50.623Z,14.48
2022-12-20T20:36:20.609Z,17.23
2022-12-20T20:38:48.242Z,13.90
2022-12-20T20:41:15.689Z,18.63
2022-12-20T20:43:44.010Z,20.10
2022-12-20T20:46:13.706Z,14.23
2022-12-20T20:48:41.063Z,18.23
2022-12-20T20:51:08.800Z,16.15
2022-12-20T20:53:36.157Z,8.88
2022-12-20T20:56:05.089Z,12.45
2022-12-20T20:58:33.382Z,20.85
2022-12-20T21:01:02.980Z,16.88
2022-12-20T21:03:31.262Z,10.52
2022-12-20T21:08:46.040Z,17.00
2022-12-20T21:11:13.597Z,8.20
2022-12-20T21:13:41.104Z,6.80
2022-12-20T21:16:20.285Z,6.63
2022-12-20T21:18:56.932Z,13.02
2022-12-20T21:21:24.998Z,6.90
2022-12-20T21:23:53.215Z,13.70
2022-12-20T21:26:21.976Z,7.50
2022-12-20T21:28:49.280Z,8.30
2022-12-20T21:31:19.225Z,13.70
2022-12-20T21:33:47.196Z,10.27
2022-12-20T21:36:16.792Z,13.88
2022-12-20T21:38:55.540Z,11.70
2022-12-20T21:41:26.403Z,13.75
2022-12-20T21:43:59.300Z,11.80
2022-12-20T21:46:28.197Z,19.02
2022-12-20T21:48:55.841Z,14.80
2022-12-20T21:51:25.394Z,8.10
2022-12-20T21:53:56.593Z,13.80
2022-12-20T21:56:26.215Z,11.23
2022-12-20T21:58:53.966Z,8.68
2022-12-20T22:01:23.574Z,10.43
2022-12-20T22:03:52.663Z,8.35
2022-12-20T22:06:21.089Z,13.77
2022-12-20T22:08:48.386Z,16.92
2022-12-20T22:11:18.026Z,13.85
2022-12-20T22:13:46.097Z,18.38
2022-12-20T22:16:19.208Z,17.25
2022-12-20T22:18:49.951Z,12.98
2022-12-20T22:21:18.618Z,14.95
2022-12-20T22:23:46.355Z,13.75
2022-12-20T22:26:16.115Z,16.73
2022-12-20T22:28:51.046Z,14.45
2022-12-20T22:31:19.323Z,16.20
2022-12-20T22:33:49.550Z,21.02
2022-12-20T22:36:17.403Z,17.45
2022-12-20T22:38:45.070Z,17.90
2022-12-20T22:41:21.048Z,13.75
2022-12-20T22:43:48.486Z,14.20
2022-12-20T22:46:29.854Z,15.95
2022-12-20T22:48:58.470Z,15.55
2022-12-20T22:51:27.662Z,14.35
2022-12-20T22:53:58.041Z,14.45
2022-12-20T22:56:25.984Z,12.30
2022-12-20T22:58:53.434Z,14.32
2022-12-20T23:01:21.353Z,20.73
2022-12-20T23:03:49.080Z,17.35
2022-12-20T23:06:19.401Z,14.60
2022-12-20T23:08:47.610Z,15.88
2022-12-20T23:11:44.324Z,21.05
2022-12-20T23:14:35.739Z,17.35
2022-12-20T23:17:04.072Z,38.53
2022-12-20T23:19:50.751Z,23.10
2022-12-20T23:22:36.927Z,20.25
2022-12-20T23:25:25.744Z,15.32
2022-12-20T23:27:53.557Z,8.45
2022-12-20T23:30:23.424Z,12.10
2022-12-20T23:32:50.958Z,20.40
2022-12-20T23:35:20.299Z,10.82
2022-12-20T23:37:48.099Z,22.90
2022-12-20T23:40:16.663Z,21.55
2022-12-20T23:42:44.521Z,17.45
2022-12-20T23:45:12.301Z,18.48
2022-12-20T23:47:39.627Z,16.95
2022-12-20T23:50:07.317Z,28.92
2022-12-20T23:52:34.610Z,15.30
2022-12-20T23:55:01.830Z,15.65
2022-12-20T23:57:31.121Z,10.15
2022-12-20T23:59:58.382Z,12.68
